DLH430 EDDF-KORD
Flight info
| Callsign | DLH430 |
|---|---|
| Flight time | N/A |
| Altitude | 36000 |
| Route | OBOKA3M/25C OBOKA Z28 DIBIR DCT BUDIP DCT RAVLO Y70 OTBED DCT ABLUC DCT OZRAT DCT WETFI DCT DODIG DCT REVNU DCT PIKIL/M081F360 NATA JANJO/N0476F360 N714B YBC DCT IGSAS DCT KAPUX DCT HOCKE DCT FNT WYNDE3 |
| Aircraft | B748/H-SADE2E3GHIJ3J4J5M1P2RWXYZ/LB1D1 |
Departure
| Time | N/A |
|---|---|
| Airport | Frankfurt Main Airport (EDDF) |
Arrival
| Time | 2026-05-04 22:00 |
|---|---|
| Airport | Chicago O'Hare International Airport (KORD) |
| Time | Latitude | Longitude | Altitude | Speed | Heading |
|---|---|---|---|---|---|
| 2026-05-04 17:35 | 56.69039 | -44.13086 | 38092 ft | 447 kts | 261° |
| 2026-05-04 17:35 | 56.68009 | -44.24199 | 38096 ft | 446 kts | 261° |
| 2026-05-04 17:36 | 56.66967 | -44.35336 | 38083 ft | 446 kts | 261° |
| 2026-05-04 17:36 | 56.65920 | -44.46412 | 38083 ft | 443 kts | 261° |
| 2026-05-04 17:37 | 56.64866 | -44.57441 | 38068 ft | 444 kts | 260° |
| 2026-05-04 17:37 | 56.63801 | -44.68493 | 38073 ft | 445 kts | 260° |
| 2026-05-04 17:38 | 56.62723 | -44.79566 | 38062 ft | 445 kts | 260° |
| 2026-05-04 17:38 | 56.61641 | -44.90568 | 38059 ft | 445 kts | 260° |
| 2026-05-04 17:39 | 56.59988 | -45.07184 | 38038 ft | 446 kts | 259° |
| 2026-05-04 17:39 | 56.58884 | -45.18154 | 38030 ft | 439 kts | 259° |
| 2026-05-04 17:40 | 56.57769 | -45.29122 | 38032 ft | 442 kts | 259° |
| 2026-05-04 17:40 | 56.56654 | -45.40003 | 38031 ft | 442 kts | 259° |
| 2026-05-04 17:41 | 56.55519 | -45.50966 | 38037 ft | 442 kts | 259° |
| 2026-05-04 17:41 | 56.54378 | -45.61890 | 38018 ft | 441 kts | 258° |
| 2026-05-04 17:42 | 56.53230 | -45.72793 | 38017 ft | 441 kts | 258° |
| 2026-05-04 17:42 | 56.52071 | -45.83698 | 38015 ft | 440 kts | 258° |
| 2026-05-04 17:43 | 56.50903 | -45.94580 | 38003 ft | 440 kts | 258° |
| 2026-05-04 17:43 | 56.49724 | -46.05484 | 38005 ft | 442 kts | 258° |
| 2026-05-04 17:44 | 56.48530 | -46.16422 | 37992 ft | 443 kts | 258° |
| 2026-05-04 17:44 | 56.47328 | -46.27348 | 37988 ft | 443 kts | 258° |
| 2026-05-04 17:45 | 56.46117 | -46.38252 | 37988 ft | 442 kts | 258° |
| 2026-05-04 17:45 | 56.44898 | -46.49140 | 37973 ft | 442 kts | 257° |
| 2026-05-04 17:46 | 56.43670 | -46.60013 | 37968 ft | 442 kts | 257° |
| 2026-05-04 17:46 | 56.42432 | -46.70886 | 37955 ft | 441 kts | 257° |
| 2026-05-04 17:47 | 56.41186 | -46.81736 | 37952 ft | 441 kts | 257° |
| 2026-05-04 17:47 | 56.39932 | -46.92572 | 37951 ft | 441 kts | 257° |
| 2026-05-04 17:48 | 56.38666 | -47.03418 | 37933 ft | 442 kts | 256° |
| 2026-05-04 17:48 | 56.37394 | -47.14224 | 37940 ft | 447 kts | 256° |
| 2026-05-04 17:49 | 56.36088 | -47.25239 | 37927 ft | 449 kts | 256° |
| 2026-05-04 17:49 | 56.34776 | -47.36215 | 37929 ft | 448 kts | 255° |
| 2026-05-04 17:50 | 56.33452 | -47.47196 | 37906 ft | 447 kts | 255° |
| 2026-05-04 17:50 | 56.32124 | -47.58126 | 37904 ft | 447 kts | 255° |
| 2026-05-04 17:51 | 56.30783 | -47.69071 | 37903 ft | 447 kts | 255° |
| 2026-05-04 17:51 | 56.29660 | -47.78181 | 37896 ft | 451 kts | 254° |
| 2026-05-04 17:52 | 56.28286 | -47.89229 | 37891 ft | 452 kts | 254° |
| 2026-05-04 17:52 | 56.26908 | -48.00236 | 37879 ft | 451 kts | 254° |
| 2026-05-04 17:53 | 56.25513 | -48.11284 | 37879 ft | 453 kts | 254° |
| 2026-05-04 17:53 | 56.24110 | -48.22314 | 37876 ft | 453 kts | 253° |
| 2026-05-04 17:54 | 56.22695 | -48.33351 | 37856 ft | 453 kts | 253° |
| 2026-05-04 17:54 | 56.21272 | -48.44377 | 37851 ft | 452 kts | 253° |
| 2026-05-04 17:55 | 56.19842 | -48.55357 | 37829 ft | 451 kts | 252° |
| 2026-05-04 17:55 | 56.18405 | -48.66312 | 37822 ft | 451 kts | 252° |
| 2026-05-04 17:56 | 56.16956 | -48.77280 | 37805 ft | 451 kts | 252° |
| 2026-05-04 17:56 | 56.15501 | -48.88209 | 37812 ft | 452 kts | 252° |
| 2026-05-04 17:57 | 56.14030 | -48.99182 | 37815 ft | 452 kts | 252° |
| 2026-05-04 17:57 | 56.12547 | -49.10153 | 37803 ft | 456 kts | 251° |
| 2026-05-04 17:58 | 56.11042 | -49.21223 | 37808 ft | 457 kts | 251° |
| 2026-05-04 17:58 | 56.09530 | -49.32254 | 37794 ft | 456 kts | 251° |
| 2026-05-04 17:59 | 56.08008 | -49.43277 | 37795 ft | 456 kts | 251° |
| 2026-05-04 18:00 | 56.05707 | -49.59786 | 37775 ft | 455 kts | 251° |
| 2026-05-04 18:00 | 56.04173 | -49.70702 | 37777 ft | 458 kts | 251° |
| 2026-05-04 18:01 | 56.02600 | -49.81808 | 37756 ft | 460 kts | 250° |
| 2026-05-04 18:01 | 56.01021 | -49.92891 | 37756 ft | 460 kts | 250° |
| 2026-05-04 18:02 | 55.97897 | -50.08901 | 37718 ft | 455 kts | 240° |
| 2026-05-04 18:02 | 55.95332 | -50.19284 | 37726 ft | 457 kts | 242° |
| 2026-05-04 18:03 | 55.92840 | -50.29725 | 37719 ft | 458 kts | 241° |
| 2026-05-04 18:03 | 55.90268 | -50.40176 | 37726 ft | 462 kts | 242° |
| 2026-05-04 18:04 | 55.87714 | -50.50678 | 37710 ft | 461 kts | 241° |
| 2026-05-04 18:05 | 55.83847 | -50.66347 | 37708 ft | 461 kts | 241° |
| 2026-05-04 18:05 | 55.81260 | -50.76796 | 37704 ft | 462 kts | 241° |
| 2026-05-04 18:06 | 55.77327 | -50.92571 | 37686 ft | 468 kts | 241° |
| 2026-05-04 18:06 | 55.74686 | -51.03111 | 37682 ft | 467 kts | 241° |
| 2026-05-04 18:07 | 55.72032 | -51.13641 | 37671 ft | 467 kts | 241° |
| 2026-05-04 18:07 | 55.69379 | -51.24128 | 37669 ft | 467 kts | 240° |
| 2026-05-04 18:08 | 55.66712 | -51.34615 | 37683 ft | 466 kts | 240° |
| 2026-05-04 18:08 | 55.64018 | -51.45148 | 37657 ft | 473 kts | 240° |
| 2026-05-04 18:09 | 55.58577 | -51.66296 | 37655 ft | 471 kts | 240° |
| 2026-05-04 18:10 | 55.55864 | -51.76771 | 37640 ft | 471 kts | 240° |
| 2026-05-04 18:10 | 55.53124 | -51.87291 | 37635 ft | 472 kts | 240° |
| 2026-05-04 18:11 | 55.50371 | -51.97817 | 37625 ft | 473 kts | 239° |
| 2026-05-04 18:11 | 55.47608 | -52.08326 | 37627 ft | 473 kts | 239° |
| 2026-05-04 18:12 | 55.44832 | -52.18840 | 37613 ft | 473 kts | 239° |
| 2026-05-04 18:12 | 55.42044 | -52.29351 | 37611 ft | 473 kts | 239° |
| 2026-05-04 18:13 | 55.39249 | -52.39839 | 37636 ft | 473 kts | 239° |
| 2026-05-04 18:14 | 55.34999 | -52.55697 | 37587 ft | 479 kts | 239° |
| 2026-05-04 18:14 | 55.32151 | -52.66257 | 37586 ft | 478 kts | 239° |
| 2026-05-04 18:15 | 55.26419 | -52.87372 | 37562 ft | 479 kts | 239° |
| 2026-05-04 18:16 | 55.23531 | -52.97934 | 37549 ft | 481 kts | 238° |
| 2026-05-04 18:16 | 55.20632 | -53.08491 | 37536 ft | 481 kts | 238° |
| 2026-05-04 18:17 | 55.16268 | -53.24288 | 37527 ft | 481 kts | 238° |
| 2026-05-04 18:18 | 55.11879 | -53.40069 | 37522 ft | 481 kts | 238° |
| 2026-05-04 18:18 | 55.08923 | -53.50626 | 37518 ft | 488 kts | 238° |
| 2026-05-04 18:19 | 55.04444 | -53.66563 | 37501 ft | 487 kts | 238° |
| 2026-05-04 18:19 | 55.01444 | -53.77157 | 37505 ft | 487 kts | 238° |
| 2026-05-04 18:20 | 54.98442 | -53.87725 | 37497 ft | 488 kts | 237° |
| 2026-05-04 18:20 | 54.95410 | -53.98336 | 37482 ft | 494 kts | 237° |
| 2026-05-04 18:21 | 54.92364 | -54.08966 | 37475 ft | 492 kts | 237° |
| 2026-05-04 18:21 | 54.89303 | -54.19581 | 37475 ft | 492 kts | 237° |
| 2026-05-04 18:22 | 54.86227 | -54.30212 | 37461 ft | 492 kts | 237° |
| 2026-05-04 18:22 | 54.83147 | -54.40805 | 37457 ft | 492 kts | 237° |
| 2026-05-04 18:23 | 54.80034 | -54.51454 | 37448 ft | 498 kts | 237° |
| 2026-05-04 18:23 | 54.76906 | -54.62130 | 37449 ft | 496 kts | 237° |
| 2026-05-04 18:24 | 54.73775 | -54.72743 | 37436 ft | 495 kts | 236° |
| 2026-05-04 18:24 | 54.70630 | -54.83370 | 37428 ft | 496 kts | 236° |
| 2026-05-04 18:25 | 54.67481 | -54.93957 | 37464 ft | 496 kts | 236° |
| 2026-05-04 18:25 | 54.64291 | -55.04627 | 37418 ft | 500 kts | 236° |
| 2026-05-04 18:26 | 54.61100 | -55.15272 | 37416 ft | 499 kts | 236° |
| 2026-05-04 18:26 | 54.57905 | -55.25864 | 37408 ft | 498 kts | 236° |
| 2026-05-04 18:27 | 54.54705 | -55.36434 | 37406 ft | 498 kts | 236° |
| 2026-05-04 18:27 | 54.51485 | -55.47014 | 37392 ft | 501 kts | 236° |
| 2026-05-04 18:28 | 54.48235 | -55.57661 | 37396 ft | 501 kts | 236° |
| 2026-05-04 18:28 | 54.44990 | -55.68233 | 37387 ft | 501 kts | 236° |
| 2026-05-04 18:29 | 54.41729 | -55.78814 | 37386 ft | 500 kts | 236° |
| 2026-05-04 18:29 | 54.38483 | -55.89299 | 37378 ft | 500 kts | 236° |
| 2026-05-04 18:30 | 54.33527 | -56.05221 | 37364 ft | 504 kts | 236° |
| 2026-05-04 18:31 | 54.30237 | -56.15730 | 37377 ft | 504 kts | 236° |
| 2026-05-04 18:31 | 54.26917 | -56.26289 | 37362 ft | 503 kts | 236° |
| 2026-05-04 18:32 | 54.23597 | -56.36805 | 37358 ft | 502 kts | 235° |
| 2026-05-04 18:32 | 54.20259 | -56.47321 | 37362 ft | 506 kts | 236° |
| 2026-05-04 18:33 | 54.16902 | -56.57874 | 37357 ft | 506 kts | 236° |
| 2026-05-04 18:33 | 54.13531 | -56.68403 | 37336 ft | 505 kts | 236° |
| 2026-05-04 18:34 | 54.10160 | -56.78897 | 37325 ft | 505 kts | 235° |
| 2026-05-04 18:34 | 54.06778 | -56.89375 | 37324 ft | 504 kts | 235° |
| 2026-05-04 18:35 | 54.03398 | -56.99796 | 37313 ft | 504 kts | 234° |
| 2026-05-04 18:35 | 53.99833 | -57.10029 | 37308 ft | 504 kts | 234° |
| 2026-05-04 18:36 | 53.96274 | -57.20273 | 37311 ft | 503 kts | 233° |
| 2026-05-04 18:36 | 53.93289 | -57.28739 | 37337 ft | 503 kts | 233° |
| 2026-05-04 18:37 | 53.89696 | -57.38974 | 37329 ft | 508 kts | 234° |
| 2026-05-04 18:37 | 53.86068 | -57.49228 | 37332 ft | 508 kts | 234° |
| 2026-05-04 18:38 | 53.82432 | -57.59478 | 37325 ft | 507 kts | 233° |
| 2026-05-04 18:38 | 53.78787 | -57.69702 | 37320 ft | 507 kts | 233° |
| 2026-05-04 18:39 | 53.75134 | -57.79907 | 37316 ft | 509 kts | 234° |
| 2026-05-04 18:39 | 53.71451 | -57.90156 | 37303 ft | 509 kts | 233° |
| 2026-05-04 18:40 | 53.67772 | -58.00354 | 37303 ft | 509 kts | 233° |
| 2026-05-04 18:40 | 53.64085 | -58.10529 | 37305 ft | 508 kts | 233° |
| 2026-05-04 18:41 | 53.60391 | -58.20682 | 37304 ft | 508 kts | 233° |
| 2026-05-04 18:41 | 53.56697 | -58.30796 | 37307 ft | 506 kts | 233° |
| 2026-05-04 18:42 | 53.53009 | -58.40850 | 37299 ft | 506 kts | 233° |
| 2026-05-04 18:42 | 53.49308 | -58.50900 | 37304 ft | 506 kts | 233° |
| 2026-05-04 18:43 | 53.45593 | -58.60947 | 37294 ft | 506 kts | 233° |
| 2026-05-04 18:43 | 53.41875 | -58.70961 | 37296 ft | 504 kts | 233° |
| 2026-05-04 18:44 | 53.38187 | -58.80861 | 37270 ft | 500 kts | 233° |
| 2026-05-04 18:44 | 53.34474 | -58.90774 | 37295 ft | 503 kts | 233° |
| 2026-05-04 18:45 | 53.30776 | -59.00629 | 37289 ft | 503 kts | 233° |
| 2026-05-04 18:45 | 53.27047 | -59.10508 | 37282 ft | 503 kts | 233° |
| 2026-05-04 18:46 | 53.23328 | -59.20338 | 37275 ft | 500 kts | 233° |
| 2026-05-04 18:46 | 53.19598 | -59.30143 | 37279 ft | 501 kts | 233° |
| 2026-05-04 18:47 | 53.15857 | -59.39954 | 37281 ft | 501 kts | 233° |
| 2026-05-04 18:47 | 53.12113 | -59.49723 | 37272 ft | 501 kts | 233° |
| 2026-05-04 18:48 | 53.08357 | -59.59490 | 37279 ft | 502 kts | 234° |
| 2026-05-04 18:48 | 53.04577 | -59.69281 | 37280 ft | 504 kts | 234° |
| 2026-05-04 18:49 | 53.00782 | -59.79074 | 37276 ft | 505 kts | 234° |
| 2026-05-04 18:49 | 52.96974 | -59.88862 | 37288 ft | 505 kts | 233° |
| 2026-05-04 18:50 | 52.93159 | -59.98627 | 37284 ft | 504 kts | 234° |
| 2026-05-04 18:50 | 52.89347 | -60.08354 | 37278 ft | 503 kts | 234° |
| 2026-05-04 18:51 | 52.85524 | -60.18065 | 37272 ft | 504 kts | 234° |
| 2026-05-04 18:51 | 52.81695 | -60.27759 | 37269 ft | 503 kts | 233° |
| 2026-05-04 18:52 | 52.77855 | -60.37438 | 37293 ft | 503 kts | 234° |
| 2026-05-04 18:52 | 52.74016 | -60.47083 | 37285 ft | 503 kts | 233° |
| 2026-05-04 18:53 | 52.70160 | -60.56730 | 37285 ft | 503 kts | 233° |
| 2026-05-04 18:53 | 52.66309 | -60.66332 | 37279 ft | 503 kts | 233° |
| 2026-05-04 18:54 | 52.62443 | -60.75930 | 37283 ft | 504 kts | 233° |
| 2026-05-04 18:54 | 52.58552 | -60.85556 | 37267 ft | 505 kts | 233° |
| 2026-05-04 18:55 | 52.54658 | -60.95156 | 37269 ft | 505 kts | 233° |
| 2026-05-04 18:55 | 52.48824 | -61.09467 | 37269 ft | 504 kts | 233° |
| 2026-05-04 18:56 | 52.44920 | -61.18998 | 37299 ft | 504 kts | 233° |
| 2026-05-04 18:56 | 52.40979 | -61.28586 | 37302 ft | 504 kts | 233° |
| 2026-05-04 18:57 | 52.37074 | -61.38051 | 37304 ft | 504 kts | 233° |
| 2026-05-04 18:57 | 52.33143 | -61.47541 | 37306 ft | 505 kts | 233° |
| 2026-05-04 18:58 | 52.29199 | -61.57030 | 37307 ft | 505 kts | 233° |
| 2026-05-04 18:58 | 52.25249 | -61.66497 | 37296 ft | 502 kts | 233° |
| 2026-05-04 18:59 | 52.21318 | -61.75883 | 37292 ft | 502 kts | 233° |
| 2026-05-04 18:59 | 52.17358 | -61.85306 | 37307 ft | 504 kts | 233° |
| 2026-05-04 19:00 | 52.13397 | -61.94696 | 37310 ft | 503 kts | 233° |
| 2026-05-04 19:00 | 52.09427 | -62.04072 | 37318 ft | 502 kts | 233° |
| 2026-05-04 19:01 | 52.05464 | -62.13397 | 37311 ft | 501 kts | 233° |
| 2026-05-04 19:01 | 52.01526 | -62.22629 | 37311 ft | 501 kts | 233° |
| 2026-05-04 19:02 | 51.97531 | -62.31965 | 37312 ft | 501 kts | 233° |
| 2026-05-04 19:02 | 51.93549 | -62.41232 | 37340 ft | 499 kts | 233° |
| 2026-05-04 19:03 | 51.89618 | -62.50352 | 37336 ft | 497 kts | 233° |
| 2026-05-04 19:03 | 51.85639 | -62.59547 | 37342 ft | 499 kts | 232° |
| 2026-05-04 19:04 | 51.81659 | -62.68716 | 37339 ft | 499 kts | 232° |
| 2026-05-04 19:04 | 51.77667 | -62.77876 | 37343 ft | 498 kts | 232° |
| 2026-05-04 19:05 | 51.73683 | -62.86988 | 37353 ft | 496 kts | 233° |
| 2026-05-04 19:05 | 51.69687 | -62.96092 | 37351 ft | 498 kts | 232° |
| 2026-05-04 19:06 | 51.65680 | -63.05192 | 37353 ft | 497 kts | 233° |
| 2026-05-04 19:06 | 51.61671 | -63.14263 | 37363 ft | 497 kts | 232° |
| 2026-05-04 19:07 | 51.57640 | -63.23351 | 37375 ft | 500 kts | 232° |
| 2026-05-04 19:07 | 51.53628 | -63.32367 | 37375 ft | 499 kts | 232° |
| 2026-05-04 19:08 | 51.49565 | -63.41463 | 37372 ft | 498 kts | 232° |
| 2026-05-04 19:08 | 51.45547 | -63.50430 | 37373 ft | 498 kts | 232° |
| 2026-05-04 19:09 | 51.41502 | -63.59423 | 37382 ft | 496 kts | 232° |
| 2026-05-04 19:09 | 51.37469 | -63.68360 | 37387 ft | 493 kts | 232° |
| 2026-05-04 19:10 | 51.33451 | -63.77232 | 37710 ft | 496 kts | 232° |
| 2026-05-04 19:10 | 51.31404 | -63.81742 | 38093 ft | 496 kts | 232° |
| 2026-05-04 19:10 | 51.29386 | -63.86179 | 38376 ft | 496 kts | 231° |
| 2026-05-04 19:11 | 51.27349 | -63.90646 | 38663 ft | 496 kts | 232° |
| 2026-05-04 19:11 | 51.25313 | -63.95109 | 38947 ft | 496 kts | 232° |
| 2026-05-04 19:11 | 51.23285 | -63.99548 | 39231 ft | 496 kts | 232° |
| 2026-05-04 19:11 | 51.21253 | -64.03986 | 39386 ft | 493 kts | 231° |
| 2026-05-04 19:12 | 51.15212 | -64.17130 | 39399 ft | 490 kts | 232° |
| 2026-05-04 19:13 | 51.11182 | -64.25866 | 39399 ft | 489 kts | 232° |
| 2026-05-04 19:13 | 51.07164 | -64.34544 | 39403 ft | 486 kts | 231° |
| 2026-05-04 19:14 | 51.03132 | -64.43224 | 39413 ft | 487 kts | 232° |
| 2026-05-04 19:14 | 50.99104 | -64.51865 | 39415 ft | 486 kts | 232° |
| 2026-05-04 19:15 | 50.95073 | -64.60486 | 39418 ft | 488 kts | 232° |
| 2026-05-04 19:15 | 50.91049 | -64.69066 | 39424 ft | 486 kts | 232° |
| 2026-05-04 19:16 | 50.86998 | -64.77671 | 39424 ft | 485 kts | 231° |
| 2026-05-04 19:16 | 50.82985 | -64.86168 | 39443 ft | 486 kts | 232° |
| 2026-05-04 19:17 | 50.78938 | -64.94711 | 39444 ft | 484 kts | 232° |
| 2026-05-04 19:17 | 50.74884 | -65.03238 | 39447 ft | 485 kts | 232° |
| 2026-05-04 19:18 | 50.70818 | -65.11765 | 39446 ft | 486 kts | 231° |
| 2026-05-04 19:18 | 50.66743 | -65.20281 | 39454 ft | 485 kts | 232° |
| 2026-05-04 19:19 | 50.62678 | -65.28750 | 39464 ft | 487 kts | 231° |
| 2026-05-04 19:19 | 50.58595 | -65.37229 | 39471 ft | 484 kts | 231° |
| 2026-05-04 19:20 | 50.54524 | -65.45655 | 39471 ft | 484 kts | 231° |
| 2026-05-04 19:20 | 50.50439 | -65.54082 | 39481 ft | 484 kts | 232° |
| 2026-05-04 19:21 | 50.46352 | -65.62487 | 39479 ft | 484 kts | 231° |
| 2026-05-04 19:21 | 50.42295 | -65.70803 | 39490 ft | 485 kts | 231° |
| 2026-05-04 19:22 | 50.38217 | -65.79138 | 39491 ft | 484 kts | 231° |
| 2026-05-04 19:22 | 50.34118 | -65.87486 | 39499 ft | 484 kts | 231° |
| 2026-05-04 19:23 | 50.30015 | -65.95818 | 39517 ft | 484 kts | 231° |
| 2026-05-04 19:23 | 50.25872 | -66.04205 | 39513 ft | 483 kts | 231° |
| 2026-05-04 19:24 | 50.21773 | -66.12473 | 39518 ft | 486 kts | 232° |
| 2026-05-04 19:24 | 50.17638 | -66.20791 | 39521 ft | 485 kts | 231° |
| 2026-05-04 19:25 | 50.13499 | -66.29089 | 39521 ft | 485 kts | 231° |
| 2026-05-04 19:25 | 50.10023 | -66.36036 | 39521 ft | 485 kts | 231° |
| 2026-05-04 19:26 | 50.05873 | -66.44309 | 39526 ft | 484 kts | 231° |
| 2026-05-04 19:26 | 50.01731 | -66.52540 | 39530 ft | 483 kts | 231° |
| 2026-05-04 19:27 | 49.97612 | -66.60700 | 39545 ft | 483 kts | 231° |
| 2026-05-04 19:27 | 49.93438 | -66.68942 | 39549 ft | 485 kts | 231° |
| 2026-05-04 19:28 | 49.89273 | -66.77140 | 39556 ft | 485 kts | 231° |
| 2026-05-04 19:28 | 49.85071 | -66.85388 | 39556 ft | 487 kts | 231° |
| 2026-05-04 19:29 | 49.80865 | -66.93615 | 39565 ft | 487 kts | 231° |
| 2026-05-04 19:29 | 49.76650 | -67.01834 | 39571 ft | 487 kts | 231° |
| 2026-05-04 19:30 | 49.72437 | -67.10026 | 39568 ft | 487 kts | 231° |
| 2026-05-04 19:30 | 49.68207 | -67.18225 | 39573 ft | 488 kts | 231° |
| 2026-05-04 19:31 | 49.63969 | -67.26412 | 39572 ft | 488 kts | 231° |
| 2026-05-04 19:31 | 49.59729 | -67.34578 | 39584 ft | 488 kts | 231° |
| 2026-05-04 19:32 | 49.55511 | -67.42678 | 39595 ft | 487 kts | 231° |
| 2026-05-04 19:32 | 49.51311 | -67.50717 | 39584 ft | 479 kts | 231° |
| 2026-05-04 19:33 | 49.47091 | -67.58773 | 39587 ft | 480 kts | 231° |
| 2026-05-04 19:33 | 49.42918 | -67.66712 | 39588 ft | 481 kts | 231° |
| 2026-05-04 19:34 | 49.38701 | -67.74712 | 39600 ft | 483 kts | 231° |
| 2026-05-04 19:34 | 49.34465 | -67.82723 | 39605 ft | 483 kts | 231° |
| 2026-05-04 19:35 | 49.30226 | -67.90715 | 39605 ft | 483 kts | 231° |
| 2026-05-04 19:35 | 49.25986 | -67.98687 | 39614 ft | 483 kts | 231° |
| 2026-05-04 19:36 | 49.21736 | -68.06653 | 39624 ft | 482 kts | 231° |
| 2026-05-04 19:36 | 49.17499 | -68.14569 | 39621 ft | 480 kts | 231° |
| 2026-05-04 19:37 | 49.13319 | -68.22510 | 39623 ft | 481 kts | 238° |
| 2026-05-04 19:37 | 49.10160 | -68.31482 | 39622 ft | 481 kts | 244° |
| 2026-05-04 19:38 | 49.07072 | -68.40547 | 39628 ft | 486 kts | 240° |
| 2026-05-04 19:38 | 49.03873 | -68.49567 | 39626 ft | 482 kts | 243° |
| 2026-05-04 19:39 | 49.00749 | -68.58619 | 39635 ft | 484 kts | 242° |
| 2026-05-04 19:39 | 48.97558 | -68.67624 | 39640 ft | 483 kts | 242° |
| 2026-05-04 19:40 | 48.94401 | -68.76641 | 39646 ft | 483 kts | 242° |
| 2026-05-04 19:40 | 48.91212 | -68.85627 | 39639 ft | 482 kts | 242° |
| 2026-05-04 19:41 | 48.88049 | -68.94567 | 39644 ft | 485 kts | 242° |
| 2026-05-04 19:41 | 48.84844 | -69.03558 | 39646 ft | 480 kts | 242° |
| 2026-05-04 19:42 | 48.81679 | -69.12425 | 39637 ft | 479 kts | 242° |
| 2026-05-04 19:42 | 48.78475 | -69.21363 | 39645 ft | 481 kts | 242° |
| 2026-05-04 19:43 | 48.75276 | -69.30259 | 39636 ft | 479 kts | 242° |
| 2026-05-04 19:43 | 48.72072 | -69.39139 | 39647 ft | 481 kts | 242° |
| 2026-05-04 19:44 | 48.68852 | -69.48030 | 39648 ft | 481 kts | 242° |
| 2026-05-04 19:44 | 48.65630 | -69.56902 | 39647 ft | 480 kts | 242° |
| 2026-05-04 19:45 | 48.62405 | -69.65746 | 39656 ft | 480 kts | 242° |
| 2026-05-04 19:45 | 48.59171 | -69.74589 | 39655 ft | 480 kts | 242° |
| 2026-05-04 19:46 | 48.55941 | -69.83391 | 39652 ft | 479 kts | 242° |
| 2026-05-04 19:46 | 48.52706 | -69.92174 | 39662 ft | 480 kts | 242° |
| 2026-05-04 19:47 | 48.49461 | -70.00958 | 39665 ft | 480 kts | 242° |
| 2026-05-04 19:47 | 48.46207 | -70.09736 | 39669 ft | 480 kts | 241° |
| 2026-05-04 19:48 | 48.42953 | -70.18483 | 39667 ft | 478 kts | 242° |
| 2026-05-04 19:48 | 48.39696 | -70.27213 | 39681 ft | 479 kts | 241° |
| 2026-05-04 19:49 | 48.36423 | -70.35953 | 39680 ft | 479 kts | 241° |
| 2026-05-04 19:49 | 48.33149 | -70.44669 | 39685 ft | 478 kts | 241° |
| 2026-05-04 19:50 | 48.29872 | -70.53363 | 39676 ft | 479 kts | 241° |
| 2026-05-04 19:50 | 48.26587 | -70.62051 | 39676 ft | 477 kts | 241° |
| 2026-05-04 19:51 | 48.23305 | -70.70702 | 39673 ft | 477 kts | 241° |
| 2026-05-04 19:51 | 48.20038 | -70.79286 | 39670 ft | 477 kts | 241° |
| 2026-05-04 19:52 | 48.16746 | -70.87908 | 39672 ft | 477 kts | 241° |
| 2026-05-04 19:52 | 48.13437 | -70.96546 | 39674 ft | 478 kts | 241° |
| 2026-05-04 19:53 | 48.10119 | -71.05180 | 39670 ft | 478 kts | 241° |
| 2026-05-04 19:53 | 48.06796 | -71.13798 | 39668 ft | 479 kts | 241° |
| 2026-05-04 19:54 | 48.03461 | -71.22419 | 39669 ft | 479 kts | 241° |
| 2026-05-04 19:54 | 48.00405 | -71.31230 | 39673 ft | 478 kts | 248° |
| 2026-05-04 19:55 | 47.97810 | -71.40341 | 39668 ft | 476 kts | 247° |
| 2026-05-04 19:55 | 47.95120 | -71.49341 | 39668 ft | 475 kts | 247° |
| 2026-05-04 19:56 | 47.92467 | -71.58389 | 39671 ft | 477 kts | 247° |
| 2026-05-04 19:56 | 47.89788 | -71.67393 | 39671 ft | 477 kts | 247° |
| 2026-05-04 19:57 | 47.87105 | -71.76420 | 39681 ft | 477 kts | 247° |
| 2026-05-04 19:57 | 47.84407 | -71.85447 | 39676 ft | 477 kts | 247° |
| 2026-05-04 19:58 | 47.81704 | -71.94461 | 39686 ft | 476 kts | 247° |
| 2026-05-04 19:58 | 47.78999 | -72.03454 | 39689 ft | 476 kts | 247° |
| 2026-05-04 19:59 | 47.76284 | -72.12443 | 39693 ft | 477 kts | 247° |
| 2026-05-04 19:59 | 47.73559 | -72.21435 | 39693 ft | 477 kts | 247° |
| 2026-05-04 20:00 | 47.70827 | -72.30414 | 39697 ft | 478 kts | 247° |
| 2026-05-04 20:00 | 47.68091 | -72.39375 | 39702 ft | 474 kts | 247° |
| 2026-05-04 20:01 | 47.65370 | -72.48258 | 39700 ft | 474 kts | 247° |
| 2026-05-04 20:01 | 47.62629 | -72.57170 | 39703 ft | 475 kts | 247° |
| 2026-05-04 20:02 | 47.59897 | -72.66026 | 39703 ft | 475 kts | 247° |
| 2026-05-04 20:02 | 47.57127 | -72.74969 | 39701 ft | 474 kts | 247° |
| 2026-05-04 20:03 | 47.54393 | -72.83766 | 39701 ft | 474 kts | 246° |
| 2026-05-04 20:03 | 47.51631 | -72.92623 | 39700 ft | 473 kts | 246° |
| 2026-05-04 20:04 | 47.48866 | -73.01460 | 39700 ft | 474 kts | 246° |
| 2026-05-04 20:04 | 47.46091 | -73.10293 | 39701 ft | 473 kts | 246° |
| 2026-05-04 20:05 | 47.43312 | -73.19110 | 39698 ft | 474 kts | 246° |
| 2026-05-04 20:05 | 47.40526 | -73.27922 | 39717 ft | 474 kts | 246° |
| 2026-05-04 20:06 | 47.37796 | -73.36523 | 39696 ft | 474 kts | 246° |
| 2026-05-04 20:06 | 47.34995 | -73.45319 | 39701 ft | 474 kts | 246° |
| 2026-05-04 20:07 | 47.32193 | -73.54087 | 39698 ft | 473 kts | 246° |
| 2026-05-04 20:07 | 47.29381 | -73.62856 | 39696 ft | 472 kts | 246° |
| 2026-05-04 20:08 | 47.26564 | -73.71614 | 39702 ft | 475 kts | 246° |
| 2026-05-04 20:08 | 47.23736 | -73.80370 | 39701 ft | 471 kts | 246° |
| 2026-05-04 20:09 | 47.20925 | -73.89051 | 39705 ft | 472 kts | 246° |
| 2026-05-04 20:09 | 47.18089 | -73.97773 | 39708 ft | 472 kts | 246° |
| 2026-05-04 20:10 | 47.15252 | -74.06471 | 39710 ft | 472 kts | 246° |
| 2026-05-04 20:10 | 47.12430 | -74.15094 | 39712 ft | 471 kts | 246° |
| 2026-05-04 20:11 | 47.09599 | -74.23713 | 39708 ft | 466 kts | 246° |
| 2026-05-04 20:11 | 47.06783 | -74.32264 | 39704 ft | 466 kts | 246° |
| 2026-05-04 20:12 | 47.03949 | -74.40836 | 39705 ft | 468 kts | 246° |
| 2026-05-04 20:12 | 47.01106 | -74.49408 | 39700 ft | 467 kts | 246° |
| 2026-05-04 20:13 | 46.98264 | -74.57949 | 39698 ft | 466 kts | 246° |
| 2026-05-04 20:13 | 46.95416 | -74.66478 | 39697 ft | 465 kts | 246° |
| 2026-05-04 20:14 | 46.93039 | -74.73578 | 39697 ft | 463 kts | 246° |
| 2026-05-04 20:14 | 46.90237 | -74.81920 | 39688 ft | 462 kts | 246° |
| 2026-05-04 20:15 | 46.87413 | -74.90301 | 39688 ft | 463 kts | 245° |
| 2026-05-04 20:15 | 46.84588 | -74.98658 | 39688 ft | 463 kts | 245° |
| 2026-05-04 20:16 | 46.81736 | -75.07070 | 39666 ft | 462 kts | 245° |
| 2026-05-04 20:16 | 46.78879 | -75.15467 | 39688 ft | 461 kts | 245° |
| 2026-05-04 20:17 | 46.76020 | -75.23844 | 39678 ft | 462 kts | 245° |
| 2026-05-04 20:17 | 46.73138 | -75.32260 | 39683 ft | 465 kts | 245° |
| 2026-05-04 20:18 | 46.70246 | -75.40681 | 39685 ft | 465 kts | 245° |
| 2026-05-04 20:18 | 46.67345 | -75.49097 | 39683 ft | 465 kts | 245° |
| 2026-05-04 20:19 | 46.64445 | -75.57486 | 39671 ft | 464 kts | 245° |
| 2026-05-04 20:19 | 46.61540 | -75.65864 | 39661 ft | 463 kts | 245° |
| 2026-05-04 20:20 | 46.58630 | -75.74228 | 39664 ft | 464 kts | 245° |
| 2026-05-04 20:20 | 46.55740 | -75.82509 | 39659 ft | 462 kts | 245° |
| 2026-05-04 20:21 | 46.52830 | -75.90821 | 39659 ft | 461 kts | 245° |
| 2026-05-04 20:21 | 46.48461 | -76.03252 | 39661 ft | 460 kts | 245° |
| 2026-05-04 20:22 | 46.45546 | -76.11513 | 39657 ft | 460 kts | 245° |
| 2026-05-04 20:22 | 46.42624 | -76.19768 | 39658 ft | 460 kts | 245° |
| 2026-05-04 20:23 | 46.39696 | -76.28013 | 39652 ft | 459 kts | 245° |
| 2026-05-04 20:23 | 46.36779 | -76.36205 | 39650 ft | 458 kts | 245° |
| 2026-05-04 20:24 | 46.33855 | -76.44391 | 39657 ft | 458 kts | 245° |
| 2026-05-04 20:24 | 46.30927 | -76.52563 | 39662 ft | 458 kts | 245° |
| 2026-05-04 20:25 | 46.27988 | -76.60738 | 39667 ft | 458 kts | 245° |
| 2026-05-04 20:25 | 46.25044 | -76.68905 | 39654 ft | 458 kts | 245° |
| 2026-05-04 20:26 | 46.22098 | -76.77051 | 39656 ft | 456 kts | 245° |
| 2026-05-04 20:26 | 46.19165 | -76.85136 | 39632 ft | 453 kts | 245° |
| 2026-05-04 20:27 | 46.16237 | -76.93187 | 39636 ft | 454 kts | 245° |
| 2026-05-04 20:27 | 46.13293 | -77.01252 | 39623 ft | 455 kts | 245° |
| 2026-05-04 20:28 | 46.10344 | -77.09311 | 39621 ft | 454 kts | 245° |
| 2026-05-04 20:28 | 46.07391 | -77.17354 | 39613 ft | 453 kts | 245° |
| 2026-05-04 20:29 | 46.04441 | -77.25368 | 39610 ft | 453 kts | 245° |
| 2026-05-04 20:29 | 46.01488 | -77.33365 | 39609 ft | 453 kts | 245° |
| 2026-05-04 20:30 | 45.98527 | -77.41360 | 39611 ft | 453 kts | 245° |
| 2026-05-04 20:30 | 45.95554 | -77.49363 | 39615 ft | 454 kts | 245° |
| 2026-05-04 20:31 | 45.92574 | -77.57361 | 39614 ft | 454 kts | 244° |
| 2026-05-04 20:31 | 45.89595 | -77.65332 | 39604 ft | 453 kts | 244° |
| 2026-05-04 20:32 | 45.86617 | -77.73281 | 39616 ft | 451 kts | 244° |
| 2026-05-04 20:32 | 45.83642 | -77.81196 | 39616 ft | 451 kts | 244° |
| 2026-05-04 20:33 | 45.80657 | -77.89115 | 39622 ft | 452 kts | 244° |
| 2026-05-04 20:33 | 45.77684 | -77.96978 | 39623 ft | 452 kts | 244° |
| 2026-05-04 20:34 | 45.74685 | -78.04888 | 39626 ft | 452 kts | 244° |
| 2026-05-04 20:34 | 45.71686 | -78.12777 | 39627 ft | 450 kts | 244° |
| 2026-05-04 20:35 | 45.68696 | -78.20618 | 39619 ft | 448 kts | 244° |
| 2026-05-04 20:35 | 45.65710 | -78.28425 | 39620 ft | 447 kts | 244° |
| 2026-05-04 20:36 | 45.62720 | -78.36222 | 39624 ft | 448 kts | 244° |
| 2026-05-04 20:36 | 45.59716 | -78.44034 | 39620 ft | 449 kts | 244° |
| 2026-05-04 20:37 | 45.56709 | -78.51830 | 39624 ft | 447 kts | 244° |
| 2026-05-04 20:37 | 45.53710 | -78.59584 | 39617 ft | 445 kts | 244° |
| 2026-05-04 20:38 | 45.50707 | -78.67327 | 39627 ft | 446 kts | 244° |
| 2026-05-04 20:38 | 45.47708 | -78.75036 | 39617 ft | 444 kts | 244° |
| 2026-05-04 20:39 | 45.44706 | -78.82735 | 39618 ft | 444 kts | 244° |
| 2026-05-04 20:39 | 45.41702 | -78.90413 | 39632 ft | 443 kts | 244° |
| 2026-05-04 20:40 | 45.38714 | -78.98032 | 39620 ft | 444 kts | 244° |
| 2026-05-04 20:40 | 45.35695 | -79.05708 | 39627 ft | 445 kts | 243° |
| 2026-05-04 20:41 | 45.32671 | -79.13376 | 39629 ft | 445 kts | 243° |
| 2026-05-04 20:41 | 45.29645 | -79.21026 | 39631 ft | 444 kts | 243° |
| 2026-05-04 20:42 | 45.26615 | -79.28668 | 39611 ft | 443 kts | 243° |
| 2026-05-04 20:42 | 45.23588 | -79.36279 | 39616 ft | 443 kts | 243° |
| 2026-05-04 20:43 | 45.20549 | -79.43902 | 39614 ft | 444 kts | 243° |
| 2026-05-04 20:43 | 45.17499 | -79.51529 | 39613 ft | 445 kts | 243° |
| 2026-05-04 20:44 | 45.14442 | -79.59154 | 39621 ft | 444 kts | 243° |
| 2026-05-04 20:44 | 45.11400 | -79.66718 | 39617 ft | 441 kts | 243° |
| 2026-05-04 20:45 | 45.08355 | -79.74256 | 39612 ft | 441 kts | 240° |
| 2026-05-04 20:45 | 45.04528 | -79.81116 | 39623 ft | 447 kts | 232° |
| 2026-05-04 20:46 | 45.00530 | -79.87842 | 39633 ft | 446 kts | 234° |
| 2026-05-04 20:46 | 44.96715 | -79.94431 | 39631 ft | 446 kts | 233° |
| 2026-05-04 20:47 | 44.92734 | -80.01153 | 39615 ft | 445 kts | 234° |
| 2026-05-04 20:47 | 44.88790 | -80.07881 | 39620 ft | 446 kts | 233° |
| 2026-05-04 20:48 | 44.84846 | -80.14543 | 39616 ft | 445 kts | 233° |
| 2026-05-04 20:48 | 44.80881 | -80.21255 | 39614 ft | 445 kts | 233° |
| 2026-05-04 20:49 | 44.76910 | -80.27944 | 39593 ft | 445 kts | 233° |
| 2026-05-04 20:49 | 44.72925 | -80.34651 | 39615 ft | 448 kts | 233° |
| 2026-05-04 20:50 | 44.68928 | -80.41354 | 39617 ft | 447 kts | 233° |
| 2026-05-04 20:50 | 44.64931 | -80.48047 | 39615 ft | 447 kts | 233° |
| 2026-05-04 20:51 | 44.60928 | -80.54732 | 39616 ft | 448 kts | 233° |
| 2026-05-04 20:51 | 44.56924 | -80.61404 | 39605 ft | 446 kts | 233° |
| 2026-05-04 20:52 | 44.52923 | -80.68055 | 39600 ft | 446 kts | 233° |
| 2026-05-04 20:52 | 44.48918 | -80.74698 | 39602 ft | 446 kts | 233° |
| 2026-05-04 20:53 | 44.44913 | -80.81323 | 39600 ft | 446 kts | 233° |
| 2026-05-04 20:53 | 44.40904 | -80.87942 | 39605 ft | 446 kts | 233° |
| 2026-05-04 20:54 | 44.36887 | -80.94555 | 39616 ft | 444 kts | 233° |
| 2026-05-04 20:54 | 44.32920 | -81.01074 | 39618 ft | 443 kts | 233° |
| 2026-05-04 20:55 | 44.28890 | -81.07682 | 39619 ft | 444 kts | 233° |
| 2026-05-04 20:55 | 44.24911 | -81.14188 | 39611 ft | 445 kts | 233° |
| 2026-05-04 20:56 | 44.20884 | -81.20760 | 39613 ft | 447 kts | 233° |
| 2026-05-04 20:56 | 44.16843 | -81.27339 | 39614 ft | 446 kts | 233° |
| 2026-05-04 20:57 | 44.12918 | -81.33713 | 39627 ft | 443 kts | 233° |
| 2026-05-04 20:57 | 44.08908 | -81.40214 | 39604 ft | 443 kts | 233° |
| 2026-05-04 20:58 | 44.04877 | -81.46732 | 39625 ft | 446 kts | 233° |
| 2026-05-04 20:58 | 44.00828 | -81.53263 | 39614 ft | 446 kts | 233° |
| 2026-05-04 20:59 | 43.96785 | -81.59772 | 39616 ft | 445 kts | 233° |
| 2026-05-04 20:59 | 43.92736 | -81.66274 | 39621 ft | 445 kts | 233° |
| 2026-05-04 21:00 | 43.88692 | -81.72755 | 39610 ft | 445 kts | 233° |
| 2026-05-04 21:00 | 43.84629 | -81.79249 | 39612 ft | 446 kts | 233° |
| 2026-05-04 21:01 | 43.81250 | -81.84639 | 39604 ft | 445 kts | 233° |
| 2026-05-04 21:01 | 43.77190 | -81.91105 | 39610 ft | 445 kts | 233° |
| 2026-05-04 21:02 | 43.73131 | -81.97553 | 39600 ft | 445 kts | 233° |
| 2026-05-04 21:02 | 43.69048 | -82.04025 | 39618 ft | 447 kts | 233° |
| 2026-05-04 21:03 | 43.64962 | -82.10485 | 39616 ft | 447 kts | 233° |
| 2026-05-04 21:03 | 43.60872 | -82.16939 | 39603 ft | 446 kts | 233° |
| 2026-05-04 21:04 | 43.56793 | -82.23360 | 39607 ft | 445 kts | 233° |
| 2026-05-04 21:04 | 43.52696 | -82.29797 | 39619 ft | 448 kts | 232° |
| 2026-05-04 21:05 | 43.48585 | -82.36237 | 39622 ft | 447 kts | 232° |
| 2026-05-04 21:05 | 43.44479 | -82.42659 | 39605 ft | 446 kts | 232° |
| 2026-05-04 21:06 | 43.40376 | -82.49060 | 39611 ft | 446 kts | 232° |
| 2026-05-04 21:06 | 43.36268 | -82.55456 | 39607 ft | 446 kts | 232° |
| 2026-05-04 21:07 | 43.32147 | -82.61858 | 39604 ft | 447 kts | 232° |
| 2026-05-04 21:07 | 43.28028 | -82.68241 | 39605 ft | 447 kts | 232° |
| 2026-05-04 21:08 | 43.24649 | -82.75250 | 39616 ft | 440 kts | 250° |
| 2026-05-04 21:08 | 43.22733 | -82.83205 | 39599 ft | 438 kts | 255° |
| 2026-05-04 21:09 | 43.20682 | -82.90989 | 39585 ft | 438 kts | 249° |
| 2026-05-04 21:09 | 43.18391 | -82.98768 | 39594 ft | 437 kts | 252° |
| 2026-05-04 21:10 | 43.16262 | -83.06529 | 39600 ft | 438 kts | 250° |
| 2026-05-04 21:10 | 43.14023 | -83.14286 | 39607 ft | 438 kts | 251° |
| 2026-05-04 21:11 | 43.11832 | -83.22070 | 39616 ft | 438 kts | 251° |
| 2026-05-04 21:11 | 43.09607 | -83.29828 | 39615 ft | 438 kts | 251° |
| 2026-05-04 21:12 | 43.07392 | -83.37590 | 39620 ft | 438 kts | 250° |
| 2026-05-04 21:12 | 43.05165 | -83.45340 | 39621 ft | 438 kts | 250° |
| 2026-05-04 21:13 | 43.02935 | -83.53087 | 39611 ft | 438 kts | 250° |
| 2026-05-04 21:13 | 43.00698 | -83.60833 | 39616 ft | 438 kts | 250° |
| 2026-05-04 21:14 | 42.98457 | -83.68570 | 39617 ft | 439 kts | 250° |
| 2026-05-04 21:14 | 42.96272 | -83.76351 | 39630 ft | 438 kts | 253° |
| 2026-05-04 21:15 | 42.94377 | -83.84264 | 39618 ft | 439 kts | 253° |
| 2026-05-04 21:15 | 42.92475 | -83.92103 | 39620 ft | 438 kts | 253° |
| 2026-05-04 21:16 | 42.90567 | -83.99985 | 39623 ft | 438 kts | 253° |
| 2026-05-04 21:16 | 42.88645 | -84.07873 | 39637 ft | 438 kts | 253° |
| 2026-05-04 21:17 | 42.86720 | -84.15757 | 39626 ft | 438 kts | 253° |
| 2026-05-04 21:17 | 42.84790 | -84.23629 | 39624 ft | 437 kts | 253° |
| 2026-05-04 21:18 | 42.82858 | -84.31484 | 39631 ft | 436 kts | 253° |
| 2026-05-04 21:18 | 42.80925 | -84.39318 | 39628 ft | 437 kts | 253° |
| 2026-05-04 21:19 | 42.78981 | -84.47165 | 39627 ft | 437 kts | 253° |
| 2026-05-04 21:19 | 42.77032 | -84.55011 | 39628 ft | 437 kts | 253° |
| 2026-05-04 21:20 | 42.75090 | -84.62800 | 39631 ft | 437 kts | 253° |
| 2026-05-04 21:20 | 42.73130 | -84.70636 | 39624 ft | 437 kts | 253° |
| 2026-05-04 21:21 | 42.71166 | -84.78461 | 39620 ft | 438 kts | 253° |
| 2026-05-04 21:21 | 42.69194 | -84.86292 | 39620 ft | 438 kts | 253° |
| 2026-05-04 21:22 | 42.67218 | -84.94115 | 39630 ft | 438 kts | 253° |
| 2026-05-04 21:22 | 42.65231 | -85.01954 | 39633 ft | 439 kts | 253° |
| 2026-05-04 21:23 | 42.63239 | -85.09786 | 39582 ft | 439 kts | 253° |
| 2026-05-04 21:23 | 42.62238 | -85.13710 | 39261 ft | 439 kts | 253° |
| 2026-05-04 21:23 | 42.61238 | -85.17626 | 38768 ft | 439 kts | 253° |
| 2026-05-04 21:24 | 42.60237 | -85.21537 | 38259 ft | 437 kts | 253° |
| 2026-05-04 21:24 | 42.59248 | -85.25393 | 36851 ft | 432 kts | 253° |
| 2026-05-04 21:24 | 42.58279 | -85.29169 | 35929 ft | 418 kts | 253° |
| 2026-05-04 21:24 | 42.57331 | -85.32855 | 35170 ft | 411 kts | 253° |
| 2026-05-04 21:25 | 42.56396 | -85.36494 | 34741 ft | 408 kts | 253° |
| 2026-05-04 21:25 | 42.55461 | -85.40124 | 34280 ft | 406 kts | 252° |
| 2026-05-04 21:25 | 42.54529 | -85.43727 | 33825 ft | 405 kts | 252° |
| 2026-05-04 21:25 | 42.53598 | -85.47327 | 33313 ft | 403 kts | 253° |
| 2026-05-04 21:26 | 42.52674 | -85.50895 | 32852 ft | 399 kts | 252° |
| 2026-05-04 21:26 | 42.51757 | -85.54428 | 32399 ft | 396 kts | 252° |
| 2026-05-04 21:26 | 42.50845 | -85.57942 | 31937 ft | 393 kts | 252° |
| 2026-05-04 21:26 | 42.49938 | -85.61426 | 31485 ft | 391 kts | 252° |
| 2026-05-04 21:27 | 42.49036 | -85.64889 | 31041 ft | 389 kts | 252° |
| 2026-05-04 21:27 | 42.48140 | -85.68324 | 30608 ft | 387 kts | 252° |
| 2026-05-04 21:27 | 42.47254 | -85.71713 | 30163 ft | 385 kts | 252° |
| 2026-05-04 21:27 | 42.46363 | -85.75119 | 29723 ft | 384 kts | 252° |
| 2026-05-04 21:28 | 42.45472 | -85.78521 | 29248 ft | 381 kts | 252° |
| 2026-05-04 21:28 | 42.44590 | -85.81881 | 28807 ft | 378 kts | 252° |
| 2026-05-04 21:28 | 42.43711 | -85.85224 | 28384 ft | 375 kts | 252° |
| 2026-05-04 21:28 | 42.42842 | -85.88529 | 27949 ft | 372 kts | 252° |
| 2026-05-04 21:29 | 42.41977 | -85.91810 | 27518 ft | 369 kts | 252° |
| 2026-05-04 21:29 | 42.41119 | -85.95063 | 27090 ft | 366 kts | 252° |
| 2026-05-04 21:29 | 42.40263 | -85.98303 | 26657 ft | 364 kts | 252° |
| 2026-05-04 21:29 | 42.39413 | -86.01514 | 26257 ft | 361 kts | 252° |
| 2026-05-04 21:30 | 42.38570 | -86.04697 | 25839 ft | 359 kts | 252° |
| 2026-05-04 21:30 | 42.37733 | -86.07855 | 25425 ft | 357 kts | 252° |
| 2026-05-04 21:30 | 42.36896 | -86.11005 | 25013 ft | 355 kts | 252° |
| 2026-05-04 21:30 | 42.36063 | -86.14138 | 24601 ft | 353 kts | 252° |
| 2026-05-04 21:31 | 42.34413 | -86.20332 | 23793 ft | 350 kts | 252° |
| 2026-05-04 21:31 | 42.33590 | -86.23415 | 23380 ft | 348 kts | 252° |
| 2026-05-04 21:31 | 42.32770 | -86.26485 | 22900 ft | 347 kts | 252° |
| 2026-05-04 21:32 | 42.31953 | -86.29534 | 22492 ft | 344 kts | 252° |
| 2026-05-04 21:32 | 42.31142 | -86.32561 | 22087 ft | 341 kts | 252° |
| 2026-05-04 21:32 | 42.30338 | -86.35557 | 21680 ft | 338 kts | 252° |
| 2026-05-04 21:32 | 42.29550 | -86.38490 | 21286 ft | 335 kts | 252° |
| 2026-05-04 21:33 | 42.28757 | -86.41442 | 20885 ft | 333 kts | 252° |
| 2026-05-04 21:33 | 42.27969 | -86.44368 | 20494 ft | 331 kts | 252° |
| 2026-05-04 21:33 | 42.27183 | -86.47282 | 20090 ft | 329 kts | 252° |
| 2026-05-04 21:33 | 42.26401 | -86.50181 | 19683 ft | 328 kts | 251° |
| 2026-05-04 21:34 | 42.25622 | -86.53062 | 19282 ft | 326 kts | 251° |
| 2026-05-04 21:34 | 42.24847 | -86.55929 | 18884 ft | 325 kts | 251° |
| 2026-05-04 21:34 | 42.24072 | -86.58790 | 18489 ft | 324 kts | 251° |
| 2026-05-04 21:34 | 42.23299 | -86.61642 | 18089 ft | 323 kts | 251° |
| 2026-05-04 21:35 | 42.22527 | -86.64485 | 17635 ft | 322 kts | 251° |
| 2026-05-04 21:35 | 42.21758 | -86.67313 | 17230 ft | 320 kts | 251° |
| 2026-05-04 21:35 | 42.20992 | -86.70128 | 16833 ft | 318 kts | 251° |
| 2026-05-04 21:35 | 42.20232 | -86.72918 | 16424 ft | 316 kts | 251° |
| 2026-05-04 21:36 | 42.19475 | -86.75695 | 16030 ft | 314 kts | 251° |
| 2026-05-04 21:36 | 42.18722 | -86.78454 | 15621 ft | 313 kts | 251° |
| 2026-05-04 21:36 | 42.17970 | -86.81203 | 15206 ft | 312 kts | 251° |
| 2026-05-04 21:36 | 42.17222 | -86.83938 | 14780 ft | 311 kts | 251° |
| 2026-05-04 21:37 | 42.16476 | -86.86659 | 14389 ft | 310 kts | 251° |
| 2026-05-04 21:37 | 42.15728 | -86.89387 | 13981 ft | 309 kts | 251° |
| 2026-05-04 21:37 | 42.14986 | -86.92091 | 13571 ft | 308 kts | 251° |
| 2026-05-04 21:37 | 42.14242 | -86.94797 | 13127 ft | 307 kts | 251° |
| 2026-05-04 21:38 | 42.13512 | -86.97448 | 12690 ft | 305 kts | 251° |
| 2026-05-04 21:38 | 42.12777 | -87.00120 | 12293 ft | 303 kts | 251° |
| 2026-05-04 21:38 | 42.12034 | -87.02814 | 11866 ft | 302 kts | 251° |
| 2026-05-04 21:38 | 42.11315 | -87.05422 | 11476 ft | 301 kts | 251° |
| 2026-05-04 21:39 | 42.10585 | -87.08062 | 11055 ft | 300 kts | 251° |
| 2026-05-04 21:39 | 42.09857 | -87.10695 | 10630 ft | 300 kts | 251° |
| 2026-05-04 21:39 | 42.09135 | -87.13298 | 10444 ft | 292 kts | 251° |
| 2026-05-04 21:39 | 42.08444 | -87.15787 | 10285 ft | 272 kts | 251° |
| 2026-05-04 21:40 | 42.07807 | -87.18082 | 10170 ft | 256 kts | 251° |
| 2026-05-04 21:40 | 42.07192 | -87.20301 | 10063 ft | 249 kts | 251° |
| 2026-05-04 21:40 | 42.06593 | -87.22459 | 9966 ft | 243 kts | 251° |
| 2026-05-04 21:40 | 42.06003 | -87.24579 | 9709 ft | 242 kts | 251° |
| 2026-05-04 21:41 | 42.05403 | -87.26739 | 9376 ft | 250 kts | 251° |
| 2026-05-04 21:41 | 42.04793 | -87.28927 | 9015 ft | 251 kts | 251° |
| 2026-05-04 21:41 | 42.04177 | -87.31137 | 8688 ft | 253 kts | 251° |
| 2026-05-04 21:41 | 42.03555 | -87.33364 | 8343 ft | 256 kts | 251° |
| 2026-05-04 21:42 | 42.02926 | -87.35616 | 8002 ft | 258 kts | 250° |
| 2026-05-04 21:42 | 42.02292 | -87.37884 | 7656 ft | 261 kts | 250° |
| 2026-05-04 21:42 | 42.01650 | -87.40175 | 7311 ft | 263 kts | 250° |
| 2026-05-04 21:42 | 42.01003 | -87.42487 | 6963 ft | 265 kts | 250° |
| 2026-05-04 21:43 | 42.00352 | -87.44808 | 6598 ft | 264 kts | 250° |
| 2026-05-04 21:43 | 41.99723 | -87.47046 | 6253 ft | 248 kts | 250° |
| 2026-05-04 21:43 | 41.99129 | -87.49160 | 5936 ft | 237 kts | 250° |
| 2026-05-04 21:43 | 41.98542 | -87.51250 | 5638 ft | 241 kts | 250° |
| 2026-05-04 21:44 | 41.97948 | -87.53361 | 5326 ft | 244 kts | 249° |
| 2026-05-04 21:44 | 41.97347 | -87.55497 | 4977 ft | 242 kts | 250° |
| 2026-05-04 21:44 | 41.96885 | -87.57573 | 4681 ft | 228 kts | 257° |
| 2026-05-04 21:44 | 41.96653 | -87.59623 | 4389 ft | 216 kts | 265° |
| 2026-05-04 21:45 | 41.96616 | -87.61573 | 4126 ft | 199 kts | 268° |
| 2026-05-04 21:45 | 41.96613 | -87.63428 | 3933 ft | 200 kts | 268° |
| 2026-05-04 21:45 | 41.96611 | -87.65259 | 3674 ft | 196 kts | 267° |
| 2026-05-04 21:45 | 41.96609 | -87.67095 | 3617 ft | 199 kts | 267° |
| 2026-05-04 21:46 | 41.96606 | -87.68959 | 3510 ft | 200 kts | 267° |
| 2026-05-04 21:46 | 41.96603 | -87.70826 | 3264 ft | 199 kts | 267° |
| 2026-05-04 21:46 | 41.96601 | -87.72671 | 3010 ft | 194 kts | 268° |
| 2026-05-04 21:46 | 41.96600 | -87.74463 | 2750 ft | 189 kts | 267° |
| 2026-05-04 21:47 | 41.96599 | -87.76181 | 2497 ft | 181 kts | 267° |
| 2026-05-04 21:47 | 41.96592 | -87.77796 | 2285 ft | 167 kts | 266° |
| 2026-05-04 21:47 | 41.96587 | -87.79280 | 2007 ft | 152 kts | 266° |
| 2026-05-04 21:47 | 41.96588 | -87.80664 | 1600 ft | 145 kts | 267° |
| 2026-05-04 21:48 | 41.96597 | -87.82004 | 1341 ft | 146 kts | 268° |
| 2026-05-04 21:48 | 41.96633 | -87.83408 | 1379 ft | 151 kts | 269° |
| 2026-05-04 21:48 | 41.96649 | -87.84778 | 1335 ft | 152 kts | 267° |
| 2026-05-04 21:48 | 41.96626 | -87.86222 | 1264 ft | 158 kts | 268° |
| 2026-05-04 21:49 | 41.96603 | -87.87697 | 1069 ft | 154 kts | 267° |
| 2026-05-04 21:49 | 41.96592 | -87.89135 | 855 ft | 158 kts | 268° |
| 2026-05-04 21:49 | 41.96605 | -87.90725 | 1176 ft | 172 kts | 268° |
| 2026-05-04 21:49 | 41.96625 | -87.92265 | 1351 ft | 161 kts | 269° |
| 2026-05-04 21:50 | 41.96660 | -87.93735 | 1494 ft | 159 kts | 268° |
| 2026-05-04 21:50 | 41.96464 | -87.95205 | 2260 ft | 157 kts | 249° |
| 2026-05-04 21:50 | 41.95885 | -87.96444 | 3125 ft | 162 kts | 231° |
| 2026-05-04 21:50 | 41.95332 | -87.97123 | 3455 ft | 162 kts | 219° |
| 2026-05-04 21:51 | 41.94261 | -87.97691 | 3782 ft | 176 kts | 192° |
| 2026-05-04 21:51 | 41.92985 | -87.97304 | 3751 ft | 202 kts | 155° |
| 2026-05-04 21:51 | 41.91880 | -87.95916 | 3803 ft | 235 kts | 138° |
| 2026-05-04 21:51 | 41.90915 | -87.93931 | 3782 ft | 269 kts | 116° |
| 2026-05-04 21:52 | 41.90444 | -87.91473 | 3732 ft | 273 kts | 100° |
| 2026-05-04 21:52 | 41.90301 | -87.88096 | 3606 ft | 272 kts | 93° |
| 2026-05-04 21:52 | 41.90276 | -87.86394 | 3610 ft | 276 kts | 93° |
| 2026-05-04 21:52 | 41.90242 | -87.83858 | 3604 ft | 267 kts | 93° |
| 2026-05-04 21:53 | 41.90212 | -87.81353 | 3607 ft | 273 kts | 93° |
| 2026-05-04 21:53 | 41.90188 | -87.78792 | 3609 ft | 275 kts | 93° |
| 2026-05-04 21:53 | 41.90161 | -87.76260 | 3604 ft | 268 kts | 93° |
| 2026-05-04 21:53 | 41.90132 | -87.73729 | 3612 ft | 271 kts | 93° |
| 2026-05-04 21:54 | 41.90116 | -87.71233 | 3602 ft | 267 kts | 93° |
| 2026-05-04 21:54 | 41.90122 | -87.68772 | 3601 ft | 259 kts | 88° |
| 2026-05-04 21:54 | 41.90666 | -87.66525 | 3611 ft | 250 kts | 54° |
| 2026-05-04 21:54 | 41.91906 | -87.65035 | 3602 ft | 234 kts | 20° |
| 2026-05-04 21:55 | 41.93411 | -87.64312 | 3630 ft | 230 kts | 9° |
| 2026-05-04 21:55 | 41.94945 | -87.63843 | 3603 ft | 218 kts | 1° |
| 2026-05-04 21:55 | 41.96391 | -87.64039 | 3625 ft | 207 kts | 329° |
| 2026-05-04 21:55 | 41.97411 | -87.65208 | 3597 ft | 186 kts | 293° |
| 2026-05-04 21:56 | 41.97902 | -87.66835 | 3496 ft | 189 kts | 275° |
| 2026-05-04 21:56 | 41.97839 | -87.68519 | 3403 ft | 178 kts | 258° |
| 2026-05-04 21:56 | 41.97569 | -87.70173 | 3275 ft | 179 kts | 255° |
| 2026-05-04 21:56 | 41.97274 | -87.71800 | 3124 ft | 180 kts | 256° |
| 2026-05-04 21:57 | 41.97007 | -87.73432 | 2895 ft | 178 kts | 258° |
| 2026-05-04 21:57 | 41.96792 | -87.75024 | 2732 ft | 167 kts | 259° |
| 2026-05-04 21:57 | 41.96668 | -87.76495 | 2543 ft | 149 kts | 263° |
| 2026-05-04 21:57 | 41.96621 | -87.77851 | 2453 ft | 142 kts | 264° |
| 2026-05-04 21:58 | 41.96602 | -87.79241 | 2317 ft | 152 kts | 267° |
| 2026-05-04 21:58 | 41.96630 | -87.80650 | 2023 ft | 151 kts | 266° |
| 2026-05-04 21:58 | 41.96612 | -87.82009 | 1712 ft | 142 kts | 265° |
| 2026-05-04 21:58 | 41.96612 | -87.83365 | 1540 ft | 147 kts | 265° |
| 2026-05-04 21:59 | 41.96615 | -87.84749 | 1366 ft | 148 kts | 266° |
| 2026-05-04 21:59 | 41.96601 | -87.86164 | 1197 ft | 156 kts | 268° |
| 2026-05-04 21:59 | 41.96592 | -87.87566 | 995 ft | 148 kts | 268° |
| 2026-05-04 21:59 | 41.96591 | -87.88949 | 796 ft | 147 kts | 266° |
| 2026-05-04 22:00 | 41.96586 | -87.90272 | 688 ft | 135 kts | 265° |
| 2026-05-04 22:00 | 41.96572 | -87.91356 | 678 ft | 89 kts | 270° |
| 2026-05-04 22:00 | 41.96572 | -87.91963 | 681 ft | 51 kts | 269° |
| 2026-05-04 22:00 | 41.96571 | -87.92382 | 683 ft | 37 kts | 270° |
| 2026-05-04 22:01 | 41.96611 | -87.92536 | 682 ft | 9 kts | 338° |
| 2026-05-04 22:01 | 41.96672 | -87.92540 | 681 ft | 10 kts | 0° |
| 2026-05-04 22:01 | 41.96724 | -87.92518 | 677 ft | 7 kts | 37° |
| 2026-05-04 22:01 | 41.96740 | -87.92479 | 676 ft | 3 kts | 83° |
| 2026-05-04 22:02 | 41.96738 | -87.92450 | 677 ft | 5 kts | 94° |
| 2026-05-04 22:02 | 41.96735 | -87.92370 | 681 ft | 12 kts | 90° |
| 2026-05-04 22:02 | 41.96737 | -87.92230 | 681 ft | 18 kts | 89° |
| 2026-05-04 22:02 | 41.96739 | -87.92025 | 677 ft | 25 kts | 89° |
| 2026-05-04 22:03 | 41.96738 | -87.91766 | 677 ft | 30 kts | 90° |
| 2026-05-04 22:03 | 41.96737 | -87.91490 | 681 ft | 29 kts | 89° |
| 2026-05-04 22:03 | 41.96739 | -87.91216 | 676 ft | 29 kts | 89° |
| 2026-05-04 22:03 | 41.96740 | -87.90946 | 675 ft | 29 kts | 90° |
| 2026-05-04 22:04 | 41.96740 | -87.90678 | 675 ft | 28 kts | 90° |
| 2026-05-04 22:04 | 41.96739 | -87.90416 | 675 ft | 28 kts | 91° |
| 2026-05-04 22:04 | 41.96738 | -87.90166 | 675 ft | 27 kts | 90° |
| 2026-05-04 22:04 | 41.96740 | -87.89916 | 675 ft | 27 kts | 89° |
| 2026-05-04 22:05 | 41.96741 | -87.89667 | 675 ft | 27 kts | 90° |
| 2026-05-04 22:05 | 41.96743 | -87.89419 | 674 ft | 26 kts | 90° |
| 2026-05-04 22:05 | 41.96755 | -87.89187 | 676 ft | 22 kts | 72° |
| 2026-05-04 22:05 | 41.96810 | -87.89086 | 672 ft | 11 kts | 28° |
| 2026-05-04 22:06 | 41.96894 | -87.89070 | 675 ft | 13 kts | 1° |
| 2026-05-04 22:06 | 41.96979 | -87.89070 | 675 ft | 12 kts | 360° |
| 2026-05-04 22:06 | 41.97058 | -87.89070 | 678 ft | 11 kts | 359° |
| 2026-05-04 22:06 | 41.97148 | -87.89077 | 678 ft | 14 kts | 349° |
| 2026-05-04 22:07 | 41.97237 | -87.89093 | 679 ft | 12 kts | 7° |
| 2026-05-04 22:07 | 41.97315 | -87.89084 | 678 ft | 10 kts | 1° |
| 2026-05-04 22:07 | 41.97355 | -87.89083 | 679 ft | 4 kts | 360° |
| 2026-05-04 22:07 | 41.97357 | -87.89083 | 679 ft | 0 kts | 360° |